sensor_id;sensor_type;location;lat;lon;timestamp;P1;durP1;ratioP1;P2;durP2;ratioP2
11777;SDS011;5946;51.770;8.548;2023-09-08T00:02:26;10.40;;;7.40;;
11777;SDS011;5946;51.770;8.548;2023-09-08T00:04:52;9.37;;;7.27;;
11777;SDS011;5946;51.770;8.548;2023-09-08T00:07:18;8.00;;;7.20;;
11777;SDS011;5946;51.770;8.548;2023-09-08T00:09:44;7.40;;;6.70;;
11777;SDS011;5946;51.770;8.548;2023-09-08T00:12:10;11.07;;;7.10;;
11777;SDS011;5946;51.770;8.548;2023-09-08T00:14:36;7.30;;;6.60;;
11777;SDS011;5946;51.770;8.548;2023-09-08T00:17:02;8.57;;;7.13;;
11777;SDS011;5946;51.770;8.548;2023-09-08T00:19:29;9.70;;;7.50;;
11777;SDS011;5946;51.770;8.548;2023-09-08T00:21:56;7.77;;;7.03;;
11777;SDS011;5946;51.770;8.548;2023-09-08T00:24:21;9.80;;;7.87;;
11777;SDS011;5946;51.770;8.548;2023-09-08T00:26:47;9.07;;;7.67;;
11777;SDS011;5946;51.770;8.548;2023-09-08T00:29:13;9.00;;;8.10;;
11777;SDS011;5946;51.770;8.548;2023-09-08T00:31:39;8.90;;;8.00;;
11777;SDS011;5946;51.770;8.548;2023-09-08T00:34:06;8.03;;;7.20;;
11777;SDS011;5946;51.770;8.548;2023-09-08T00:36:32;8.20;;;7.40;;
11777;SDS011;5946;51.770;8.548;2023-09-08T00:38:58;8.77;;;7.67;;
11777;SDS011;5946;51.770;8.548;2023-09-08T00:41:24;7.77;;;6.83;;
11777;SDS011;5946;51.770;8.548;2023-09-08T00:43:50;8.33;;;7.53;;
11777;SDS011;5946;51.770;8.548;2023-09-08T00:46:16;8.10;;;7.37;;
11777;SDS011;5946;51.770;8.548;2023-09-08T00:48:42;7.90;;;7.10;;
11777;SDS011;5946;51.770;8.548;2023-09-08T00:51:09;10.20;;;7.07;;
11777;SDS011;5946;51.770;8.548;2023-09-08T00:53:35;11.27;;;7.40;;
11777;SDS011;5946;51.770;8.548;2023-09-08T00:56:02;8.03;;;7.23;;
11777;SDS011;5946;51.770;8.548;2023-09-08T00:58:28;7.53;;;6.73;;
11777;SDS011;5946;51.770;8.548;2023-09-08T01:00:54;9.23;;;7.33;;
11777;SDS011;5946;51.770;8.548;2023-09-08T01:03:22;8.10;;;7.17;;
11777;SDS011;5946;51.770;8.548;2023-09-08T01:05:48;7.50;;;6.80;;
11777;SDS011;5946;51.770;8.548;2023-09-08T01:08:15;7.63;;;6.83;;
11777;SDS011;5946;51.770;8.548;2023-09-08T01:10:41;8.00;;;7.20;;
11777;SDS011;5946;51.770;8.548;2023-09-08T01:13:07;8.17;;;7.00;;
11777;SDS011;5946;51.770;8.548;2023-09-08T01:15:33;10.63;;;7.17;;
11777;SDS011;5946;51.770;8.548;2023-09-08T01:17:59;7.73;;;6.80;;
11777;SDS011;5946;51.770;8.548;2023-09-08T01:20:27;9.27;;;7.10;;
11777;SDS011;5946;51.770;8.548;2023-09-08T01:25:26;6.87;;;6.17;;
11777;SDS011;5946;51.770;8.548;2023-09-08T01:27:53;8.47;;;7.27;;
11777;SDS011;5946;51.770;8.548;2023-09-08T01:30:20;8.07;;;7.27;;
11777;SDS011;5946;51.770;8.548;2023-09-08T01:32:46;7.97;;;6.77;;
11777;SDS011;5946;51.770;8.548;2023-09-08T01:35:13;8.97;;;6.97;;
11777;SDS011;5946;51.770;8.548;2023-09-08T01:37:40;8.73;;;6.80;;
11777;SDS011;5946;51.770;8.548;2023-09-08T01:40:07;8.63;;;6.90;;
11777;SDS011;5946;51.770;8.548;2023-09-08T01:42:34;7.73;;;7.00;;
11777;SDS011;5946;51.770;8.548;2023-09-08T01:45:00;10.70;;;7.63;;
11777;SDS011;5946;51.770;8.548;2023-09-08T01:47:28;9.93;;;7.40;;
11777;SDS011;5946;51.770;8.548;2023-09-08T01:49:55;8.57;;;7.40;;
11777;SDS011;5946;51.770;8.548;2023-09-08T01:52:20;10.30;;;7.10;;
11777;SDS011;5946;51.770;8.548;2023-09-08T01:54:46;7.30;;;6.60;;
11777;SDS011;5946;51.770;8.548;2023-09-08T01:57:12;9.60;;;7.07;;
11777;SDS011;5946;51.770;8.548;2023-09-08T01:59:38;8.73;;;7.23;;
11777;SDS011;5946;51.770;8.548;2023-09-08T02:02:04;9.93;;;6.97;;
11777;SDS011;5946;51.770;8.548;2023-09-08T02:04:31;7.90;;;7.10;;
11777;SDS011;5946;51.770;8.548;2023-09-08T02:06:57;7.70;;;6.97;;
11777;SDS011;5946;51.770;8.548;2023-09-08T02:09:29;8.43;;;7.53;;
11777;SDS011;5946;51.770;8.548;2023-09-08T02:11:56;9.17;;;7.83;;
11777;SDS011;5946;51.770;8.548;2023-09-08T02:14:22;10.17;;;7.90;;
11777;SDS011;5946;51.770;8.548;2023-09-08T02:16:47;9.20;;;8.07;;
11777;SDS011;5946;51.770;8.548;2023-09-08T02:19:13;11.20;;;8.47;;
11777;SDS011;5946;51.770;8.548;2023-09-08T02:21:39;10.80;;;7.83;;
11777;SDS011;5946;51.770;8.548;2023-09-08T02:24:05;9.33;;;7.30;;
11777;SDS011;5946;51.770;8.548;2023-09-08T02:26:31;10.40;;;7.57;;
11777;SDS011;5946;51.770;8.548;2023-09-08T02:28:58;11.90;;;7.53;;
11777;SDS011;5946;51.770;8.548;2023-09-08T02:31:25;11.33;;;7.70;;
11777;SDS011;5946;51.770;8.548;2023-09-08T02:33:51;9.87;;;7.50;;
11777;SDS011;5946;51.770;8.548;2023-09-08T02:36:17;10.60;;;7.50;;
11777;SDS011;5946;51.770;8.548;2023-09-08T02:38:50;10.63;;;7.57;;
11777;SDS011;5946;51.770;8.548;2023-09-08T02:41:16;12.97;;;7.33;;
11777;SDS011;5946;51.770;8.548;2023-09-08T02:43:42;9.30;;;7.50;;
11777;SDS011;5946;51.770;8.548;2023-09-08T02:46:08;13.00;;;7.70;;
11777;SDS011;5946;51.770;8.548;2023-09-08T02:48:34;10.57;;;7.30;;
11777;SDS011;5946;51.770;8.548;2023-09-08T02:51:00;10.03;;;6.53;;
11777;SDS011;5946;51.770;8.548;2023-09-08T02:53:26;14.93;;;7.00;;
11777;SDS011;5946;51.770;8.548;2023-09-08T02:55:56;12.87;;;7.07;;
11777;SDS011;5946;51.770;8.548;2023-09-08T02:58:22;10.60;;;7.13;;
11777;SDS011;5946;51.770;8.548;2023-09-08T03:00:48;13.43;;;7.67;;
11777;SDS011;5946;51.770;8.548;2023-09-08T03:03:16;9.57;;;7.10;;
11777;SDS011;5946;51.770;8.548;2023-09-08T03:05:42;13.90;;;7.50;;
11777;SDS011;5946;51.770;8.548;2023-09-08T03:08:08;11.43;;;7.50;;
11777;SDS011;5946;51.770;8.548;2023-09-08T03:10:34;13.77;;;7.53;;
11777;SDS011;5946;51.770;8.548;2023-09-08T03:13:01;12.40;;;7.30;;
11777;SDS011;5946;51.770;8.548;2023-09-08T03:15:27;9.33;;;7.40;;
11777;SDS011;5946;51.770;8.548;2023-09-08T03:17:56;12.43;;;7.33;;
11777;SDS011;5946;51.770;8.548;2023-09-08T03:20:23;9.53;;;7.23;;
11777;SDS011;5946;51.770;8.548;2023-09-08T03:22:49;10.20;;;7.27;;
11777;SDS011;5946;51.770;8.548;2023-09-08T03:25:15;10.30;;;7.80;;
11777;SDS011;5946;51.770;8.548;2023-09-08T03:27:41;9.40;;;7.50;;
11777;SDS011;5946;51.770;8.548;2023-09-08T03:30:07;8.47;;;7.10;;
11777;SDS011;5946;51.770;8.548;2023-09-08T03:32:33;10.73;;;7.30;;
11777;SDS011;5946;51.770;8.548;2023-09-08T03:34:59;10.17;;;7.83;;
11777;SDS011;5946;51.770;8.548;2023-09-08T03:37:25;15.87;;;7.73;;
11777;SDS011;5946;51.770;8.548;2023-09-08T03:39:51;8.40;;;7.20;;
11777;SDS011;5946;51.770;8.548;2023-09-08T03:42:18;11.50;;;8.40;;
11777;SDS011;5946;51.770;8.548;2023-09-08T03:44:44;9.97;;;8.10;;
11777;SDS011;5946;51.770;8.548;2023-09-08T03:47:10;13.80;;;7.70;;
11777;SDS011;5946;51.770;8.548;2023-09-08T03:49:36;9.67;;;7.77;;
11777;SDS011;5946;51.770;8.548;2023-09-08T03:52:02;10.70;;;7.57;;
11777;SDS011;5946;51.770;8.548;2023-09-08T03:54:28;12.30;;;7.47;;
11777;SDS011;5946;51.770;8.548;2023-09-08T03:56:53;9.20;;;7.57;;
11777;SDS011;5946;51.770;8.548;2023-09-08T03:59:19;10.73;;;7.77;;
11777;SDS011;5946;51.770;8.548;2023-09-08T04:01:46;11.40;;;8.23;;
11777;SDS011;5946;51.770;8.548;2023-09-08T04:04:12;10.17;;;7.83;;
11777;SDS011;5946;51.770;8.548;2023-09-08T04:06:38;17.30;;;7.80;;
11777;SDS011;5946;51.770;8.548;2023-09-08T04:09:04;9.67;;;7.53;;
11777;SDS011;5946;51.770;8.548;2023-09-08T04:11:30;11.07;;;7.73;;
11777;SDS011;5946;51.770;8.548;2023-09-08T04:13:56;10.87;;;7.87;;
11777;SDS011;5946;51.770;8.548;2023-09-08T04:16:22;9.07;;;7.97;;
11777;SDS011;5946;51.770;8.548;2023-09-08T04:18:48;8.77;;;7.93;;
11777;SDS011;5946;51.770;8.548;2023-09-08T04:21:14;9.27;;;7.97;;
11777;SDS011;5946;51.770;8.548;2023-09-08T04:23:40;9.57;;;7.80;;
11777;SDS011;5946;51.770;8.548;2023-09-08T04:26:06;12.10;;;8.87;;
11777;SDS011;5946;51.770;8.548;2023-09-08T04:28:32;9.67;;;8.20;;
11777;SDS011;5946;51.770;8.548;2023-09-08T04:30:58;9.63;;;7.17;;
11777;SDS011;5946;51.770;8.548;2023-09-08T04:33:24;9.67;;;7.40;;
11777;SDS011;5946;51.770;8.548;2023-09-08T04:35:50;8.50;;;7.70;;
11777;SDS011;5946;51.770;8.548;2023-09-08T04:38:16;11.73;;;8.33;;
11777;SDS011;5946;51.770;8.548;2023-09-08T04:40:42;8.90;;;7.53;;
11777;SDS011;5946;51.770;8.548;2023-09-08T04:43:08;10.43;;;7.70;;
11777;SDS011;5946;51.770;8.548;2023-09-08T04:45:34;10.47;;;8.03;;
11777;SDS011;5946;51.770;8.548;2023-09-08T04:48:00;13.33;;;7.97;;
11777;SDS011;5946;51.770;8.548;2023-09-08T04:50:26;11.63;;;8.07;;
11777;SDS011;5946;51.770;8.548;2023-09-08T04:52:51;10.47;;;7.77;;
11777;SDS011;5946;51.770;8.548;2023-09-08T04:55:17;10.47;;;8.13;;
11777;SDS011;5946;51.770;8.548;2023-09-08T04:57:44;9.80;;;7.40;;
11777;SDS011;5946;51.770;8.548;2023-09-08T05:00:10;14.97;;;8.20;;
11777;SDS011;5946;51.770;8.548;2023-09-08T05:02:37;10.63;;;8.20;;
11777;SDS011;5946;51.770;8.548;2023-09-08T05:05:03;11.37;;;7.87;;
11777;SDS011;5946;51.770;8.548;2023-09-08T05:07:29;10.07;;;7.73;;
11777;SDS011;5946;51.770;8.548;2023-09-08T05:09:55;9.93;;;7.73;;
11777;SDS011;5946;51.770;8.548;2023-09-08T05:12:21;8.80;;;7.90;;
11777;SDS011;5946;51.770;8.548;2023-09-08T05:14:47;10.43;;;8.10;;
11777;SDS011;5946;51.770;8.548;2023-09-08T05:17:13;8.50;;;7.53;;
11777;SDS011;5946;51.770;8.548;2023-09-08T05:19:39;9.13;;;7.40;;
11777;SDS011;5946;51.770;8.548;2023-09-08T05:22:05;12.53;;;7.50;;
11777;SDS011;5946;51.770;8.548;2023-09-08T05:24:34;10.37;;;7.13;;
11777;SDS011;5946;51.770;8.548;2023-09-08T05:27:00;10.43;;;8.00;;
11777;SDS011;5946;51.770;8.548;2023-09-08T05:29:26;10.40;;;8.77;;
11777;SDS011;5946;51.770;8.548;2023-09-08T05:31:52;9.50;;;7.57;;
11777;SDS011;5946;51.770;8.548;2023-09-08T05:34:18;10.17;;;7.53;;
11777;SDS011;5946;51.770;8.548;2023-09-08T05:36:44;8.77;;;7.23;;
11777;SDS011;5946;51.770;8.548;2023-09-08T05:39:10;10.13;;;7.73;;
11777;SDS011;5946;51.770;8.548;2023-09-08T05:41:38;11.70;;;8.13;;
11777;SDS011;5946;51.770;8.548;2023-09-08T05:44:04;9.73;;;7.67;;
11777;SDS011;5946;51.770;8.548;2023-09-08T05:46:30;8.87;;;7.93;;
11777;SDS011;5946;51.770;8.548;2023-09-08T05:48:56;10.03;;;7.53;;
11777;SDS011;5946;51.770;8.548;2023-09-08T05:51:22;8.97;;;7.57;;
11777;SDS011;5946;51.770;8.548;2023-09-08T05:53:48;8.50;;;7.60;;
11777;SDS011;5946;51.770;8.548;2023-09-08T05:56:14;8.80;;;7.70;;
11777;SDS011;5946;51.770;8.548;2023-09-08T05:58:40;11.40;;;6.93;;
11777;SDS011;5946;51.770;8.548;2023-09-08T06:01:06;10.63;;;8.10;;
11777;SDS011;5946;51.770;8.548;2023-09-08T06:03:32;9.03;;;8.13;;
11777;SDS011;5946;51.770;8.548;2023-09-08T06:05:58;11.43;;;8.23;;
11777;SDS011;5946;51.770;8.548;2023-09-08T06:08:24;9.67;;;7.73;;
11777;SDS011;5946;51.770;8.548;2023-09-08T06:10:50;12.77;;;8.83;;
11777;SDS011;5946;51.770;8.548;2023-09-08T06:13:16;9.20;;;8.10;;
11777;SDS011;5946;51.770;8.548;2023-09-08T06:15:42;9.87;;;7.57;;
11777;SDS011;5946;51.770;8.548;2023-09-08T06:18:08;11.60;;;8.07;;
11777;SDS011;5946;51.770;8.548;2023-09-08T06:20:34;13.80;;;8.03;;
11777;SDS011;5946;51.770;8.548;2023-09-08T06:23:00;9.07;;;7.13;;
11777;SDS011;5946;51.770;8.548;2023-09-08T06:25:26;8.83;;;7.33;;
11777;SDS011;5946;51.770;8.548;2023-09-08T06:27:53;9.43;;;6.90;;
11777;SDS011;5946;51.770;8.548;2023-09-08T06:30:19;7.80;;;6.43;;
11777;SDS011;5946;51.770;8.548;2023-09-08T06:32:45;9.17;;;6.83;;
11777;SDS011;5946;51.770;8.548;2023-09-08T06:35:11;9.40;;;6.80;;
11777;SDS011;5946;51.770;8.548;2023-09-08T06:37:38;7.80;;;6.60;;
11777;SDS011;5946;51.770;8.548;2023-09-08T06:40:04;7.37;;;6.43;;
11777;SDS011;5946;51.770;8.548;2023-09-08T06:42:30;11.73;;;6.43;;
11777;SDS011;5946;51.770;8.548;2023-09-08T06:44:56;7.30;;;6.53;;
11777;SDS011;5946;51.770;8.548;2023-09-08T06:47:22;11.57;;;6.80;;
11777;SDS011;5946;51.770;8.548;2023-09-08T06:49:48;7.37;;;6.40;;
11777;SDS011;5946;51.770;8.548;2023-09-08T06:52:14;8.20;;;7.00;;
11777;SDS011;5946;51.770;8.548;2023-09-08T06:54:40;8.37;;;6.40;;
11777;SDS011;5946;51.770;8.548;2023-09-08T06:57:06;13.53;;;6.90;;
11777;SDS011;5946;51.770;8.548;2023-09-08T06:59:32;9.35;;;6.68;;
11777;SDS011;5946;51.770;8.548;2023-09-08T07:01:58;8.65;;;6.22;;
11777;SDS011;5946;51.770;8.548;2023-09-08T07:04:24;10.50;;;6.60;;
11777;SDS011;5946;51.770;8.548;2023-09-08T07:06:50;8.95;;;6.40;;
11777;SDS011;5946;51.770;8.548;2023-09-08T07:09:19;8.25;;;6.20;;
11777;SDS011;5946;51.770;8.548;2023-09-08T07:11:45;6.90;;;6.20;;
11777;SDS011;5946;51.770;8.548;2023-09-08T07:14:11;10.65;;;7.13;;
11777;SDS011;5946;51.770;8.548;2023-09-08T07:16:37;6.30;;;5.68;;
11777;SDS011;5946;51.770;8.548;2023-09-08T07:19:03;8.60;;;6.32;;
11777;SDS011;5946;51.770;8.548;2023-09-08T07:21:29;6.53;;;5.90;;
11777;SDS011;5946;51.770;8.548;2023-09-08T07:23:55;7.95;;;6.28;;
11777;SDS011;5946;51.770;8.548;2023-09-08T07:26:21;6.50;;;5.82;;
11777;SDS011;5946;51.770;8.548;2023-09-08T07:28:47;8.30;;;6.20;;
11777;SDS011;5946;51.770;8.548;2023-09-08T07:31:14;7.30;;;5.95;;
11777;SDS011;5946;51.770;8.548;2023-09-08T07:33:40;7.68;;;6.15;;
11777;SDS011;5946;51.770;8.548;2023-09-08T07:36:06;7.10;;;5.95;;
11777;SDS011;5946;51.770;8.548;2023-09-08T07:38:32;9.18;;;5.75;;
11777;SDS011;5946;51.770;8.548;2023-09-08T07:40:58;9.48;;;5.93;;
11777;SDS011;5946;51.770;8.548;2023-09-08T07:43:26;6.40;;;5.80;;
11777;SDS011;5946;51.770;8.548;2023-09-08T07:45:51;7.38;;;6.07;;
11777;SDS011;5946;51.770;8.548;2023-09-08T07:48:17;7.88;;;6.35;;
11777;SDS011;5946;51.770;8.548;2023-09-08T07:50:43;8.70;;;5.75;;
11777;SDS011;5946;51.770;8.548;2023-09-08T07:53:09;7.55;;;5.88;;
11777;SDS011;5946;51.770;8.548;2023-09-08T07:55:36;5.40;;;4.85;;
11777;SDS011;5946;51.770;8.548;2023-09-08T07:58:02;8.90;;;5.50;;
11777;SDS011;5946;51.770;8.548;2023-09-08T08:00:31;7.80;;;5.38;;
11777;SDS011;5946;51.770;8.548;2023-09-08T08:02:58;7.95;;;5.78;;
11777;SDS011;5946;51.770;8.548;2023-09-08T08:05:24;10.05;;;5.50;;
11777;SDS011;5946;51.770;8.548;2023-09-08T08:07:51;5.93;;;5.32;;
11777;SDS011;5946;51.770;8.548;2023-09-08T08:10:17;8.68;;;5.78;;
11777;SDS011;5946;51.770;8.548;2023-09-08T08:12:44;6.38;;;5.63;;
11777;SDS011;5946;51.770;8.548;2023-09-08T08:15:10;5.80;;;5.30;;
11777;SDS011;5946;51.770;8.548;2023-09-08T08:17:36;8.93;;;5.63;;
11777;SDS011;5946;51.770;8.548;2023-09-08T08:20:03;5.80;;;5.30;;
11777;SDS011;5946;51.770;8.548;2023-09-08T08:22:41;8.98;;;5.53;;
11777;SDS011;5946;51.770;8.548;2023-09-08T08:25:07;8.55;;;5.50;;
11777;SDS011;5946;51.770;8.548;2023-09-08T08:27:34;9.20;;;5.53;;
11777;SDS011;5946;51.770;8.548;2023-09-08T08:30:00;6.38;;;5.00;;
11777;SDS011;5946;51.770;8.548;2023-09-08T08:32:28;6.78;;;5.10;;
11777;SDS011;5946;51.770;8.548;2023-09-08T08:34:55;7.93;;;5.28;;
11777;SDS011;5946;51.770;8.548;2023-09-08T08:37:21;7.03;;;5.07;;
11777;SDS011;5946;51.770;8.548;2023-09-08T08:39:47;7.40;;;5.63;;
11777;SDS011;5946;51.770;8.548;2023-09-08T08:42:13;6.25;;;4.68;;
11777;SDS011;5946;51.770;8.548;2023-09-08T08:44:39;7.30;;;4.97;;
11777;SDS011;5946;51.770;8.548;2023-09-08T08:47:06;5.40;;;4.68;;
11777;SDS011;5946;51.770;8.548;2023-09-08T08:49:33;7.47;;;5.03;;
11777;SDS011;5946;51.770;8.548;2023-09-08T08:51:59;6.05;;;4.90;;
11777;SDS011;5946;51.770;8.548;2023-09-08T08:54:28;7.35;;;5.30;;
11777;SDS011;5946;51.770;8.548;2023-09-08T08:56:55;7.05;;;4.70;;
11777;SDS011;5946;51.770;8.548;2023-09-08T08:59:21;5.25;;;4.72;;
11777;SDS011;5946;51.770;8.548;2023-09-08T09:01:47;5.28;;;4.78;;
11777;SDS011;5946;51.770;8.548;2023-09-08T09:04:14;5.55;;;5.05;;
11777;SDS011;5946;51.770;8.548;2023-09-08T09:06:41;7.30;;;5.00;;
11777;SDS011;5946;51.770;8.548;2023-09-08T09:09:07;7.53;;;4.80;;
11777;SDS011;5946;51.770;8.548;2023-09-08T09:11:35;6.45;;;4.85;;
11777;SDS011;5946;51.770;8.548;2023-09-08T09:14:01;7.53;;;5.03;;
11777;SDS011;5946;51.770;8.548;2023-09-08T09:16:29;9.20;;;5.70;;
11777;SDS011;5946;51.770;8.548;2023-09-08T09:18:56;4.82;;;4.43;;
11777;SDS011;5946;51.770;8.548;2023-09-08T09:21:22;7.35;;;4.82;;
11777;SDS011;5946;51.770;8.548;2023-09-08T09:23:48;5.68;;;5.07;;
11777;SDS011;5946;51.770;8.548;2023-09-08T09:26:24;6.07;;;4.85;;
11777;SDS011;5946;51.770;8.548;2023-09-08T09:28:50;5.93;;;4.88;;
11777;SDS011;5946;51.770;8.548;2023-09-08T09:31:18;7.25;;;4.88;;
11777;SDS011;5946;51.770;8.548;2023-09-08T09:33:44;6.25;;;4.97;;
11777;SDS011;5946;51.770;8.548;2023-09-08T09:36:19;6.13;;;5.07;;
11777;SDS011;5946;51.770;8.548;2023-09-08T09:38:45;5.22;;;4.72;;
11777;SDS011;5946;51.770;8.548;2023-09-08T09:41:12;5.05;;;4.55;;
11777;SDS011;5946;51.770;8.548;2023-09-08T09:43:38;6.47;;;5.03;;
11777;SDS011;5946;51.770;8.548;2023-09-08T09:46:07;6.13;;;5.07;;
11777;SDS011;5946;51.770;8.548;2023-09-08T09:48:36;5.40;;;4.85;;
11777;SDS011;5946;51.770;8.548;2023-09-08T09:51:17;7.32;;;4.95;;
11777;SDS011;5946;51.770;8.548;2023-09-08T09:53:44;6.63;;;4.82;;
11777;SDS011;5946;51.770;8.548;2023-09-08T09:56:11;5.75;;;4.60;;
11777;SDS011;5946;51.770;8.548;2023-09-08T09:58:37;10.60;;;5.18;;
11777;SDS011;5946;51.770;8.548;2023-09-08T10:01:03;7.30;;;5.20;;
11777;SDS011;5946;51.770;8.548;2023-09-08T10:03:29;8.85;;;4.70;;
11777;SDS011;5946;51.770;8.548;2023-09-08T10:05:57;6.03;;;4.80;;
11777;SDS011;5946;51.770;8.548;2023-09-08T10:08:23;8.50;;;5.05;;
11777;SDS011;5946;51.770;8.548;2023-09-08T10:10:49;5.80;;;4.80;;
11777;SDS011;5946;51.770;8.548;2023-09-08T10:13:18;5.38;;;4.65;;
11777;SDS011;5946;51.770;8.548;2023-09-08T10:15:46;5.32;;;4.82;;
11777;SDS011;5946;51.770;8.548;2023-09-08T10:18:12;12.05;;;4.95;;
11777;SDS011;5946;51.770;8.548;2023-09-08T10:20:40;7.28;;;5.25;;
11777;SDS011;5946;51.770;8.548;2023-09-08T10:23:07;7.53;;;4.97;;
11777;SDS011;5946;51.770;8.548;2023-09-08T10:25:39;5.93;;;4.50;;
11777;SDS011;5946;51.770;8.548;2023-09-08T10:28:08;5.18;;;4.78;;
11777;SDS011;5946;51.770;8.548;2023-09-08T10:30:35;5.80;;;5.20;;
11777;SDS011;5946;51.770;8.548;2023-09-08T10:33:01;5.10;;;4.70;;
11777;SDS011;5946;51.770;8.548;2023-09-08T10:35:28;6.90;;;4.80;;
11777;SDS011;5946;51.770;8.548;2023-09-08T10:40:39;8.98;;;4.93;;
11777;SDS011;5946;51.770;8.548;2023-09-08T10:43:08;6.03;;;5.05;;
11777;SDS011;5946;51.770;8.548;2023-09-08T10:45:34;5.38;;;4.90;;
11777;SDS011;5946;51.770;8.548;2023-09-08T10:48:00;6.30;;;5.20;;
11777;SDS011;5946;51.770;8.548;2023-09-08T10:50:30;9.98;;;5.43;;
11777;SDS011;5946;51.770;8.548;2023-09-08T10:53:30;6.13;;;4.88;;
11777;SDS011;5946;51.770;8.548;2023-09-08T10:55:49;7.75;;;4.43;;
11777;SDS011;5946;51.770;8.548;2023-09-08T10:58:18;9.65;;;5.05;;
11777;SDS011;5946;51.770;8.548;2023-09-08T11:00:48;10.23;;;4.80;;
11777;SDS011;5946;51.770;8.548;2023-09-08T11:03:25;8.35;;;5.07;;
11777;SDS011;5946;51.770;8.548;2023-09-08T11:05:52;6.85;;;4.85;;
11777;SDS011;5946;51.770;8.548;2023-09-08T11:08:18;5.65;;;4.70;;
11777;SDS011;5946;51.770;8.548;2023-09-08T11:10:44;5.82;;;4.65;;
11777;SDS011;5946;51.770;8.548;2023-09-08T11:13:10;4.97;;;4.47;;
11777;SDS011;5946;51.770;8.548;2023-09-08T11:15:37;5.40;;;4.90;;
11777;SDS011;5946;51.770;8.548;2023-09-08T11:18:06;8.52;;;4.90;;
11777;SDS011;5946;51.770;8.548;2023-09-08T11:20:34;5.68;;;4.82;;
11777;SDS011;5946;51.770;8.548;2023-09-08T11:23:00;9.25;;;4.90;;
11777;SDS011;5946;51.770;8.548;2023-09-08T11:25:26;7.80;;;5.05;;
11777;SDS011;5946;51.770;8.548;2023-09-08T11:27:52;6.25;;;4.50;;
11777;SDS011;5946;51.770;8.548;2023-09-08T11:30:18;4.75;;;4.35;;
11777;SDS011;5946;51.770;8.548;2023-09-08T11:32:44;6.28;;;4.13;;
11777;SDS011;5946;51.770;8.548;2023-09-08T11:35:10;5.43;;;4.50;;
11777;SDS011;5946;51.770;8.548;2023-09-08T11:37:36;7.03;;;4.30;;
11777;SDS011;5946;51.770;8.548;2023-09-08T11:40:03;4.97;;;4.47;;
11777;SDS011;5946;51.770;8.548;2023-09-08T11:42:42;4.78;;;4.38;;
11777;SDS011;5946;51.770;8.548;2023-09-08T11:45:14;4.75;;;4.35;;
11777;SDS011;5946;51.770;8.548;2023-09-08T11:47:46;8.50;;;4.28;;
11777;SDS011;5946;51.770;8.548;2023-09-08T11:50:14;6.05;;;4.25;;
11777;SDS011;5946;51.770;8.548;2023-09-08T11:52:47;5.10;;;4.70;;
11777;SDS011;5946;51.770;8.548;2023-09-08T11:55:14;4.82;;;4.40;;
11777;SDS011;5946;51.770;8.548;2023-09-08T11:57:40;5.75;;;4.43;;
11777;SDS011;5946;51.770;8.548;2023-09-08T12:00:07;7.88;;;4.63;;
11777;SDS011;5946;51.770;8.548;2023-09-08T12:02:36;5.63;;;4.55;;
11777;SDS011;5946;51.770;8.548;2023-09-08T12:05:03;5.97;;;4.85;;
11777;SDS011;5946;51.770;8.548;2023-09-08T12:07:29;9.98;;;4.88;;
11777;SDS011;5946;51.770;8.548;2023-09-08T12:09:55;6.80;;;4.80;;
11777;SDS011;5946;51.770;8.548;2023-09-08T12:12:24;6.47;;;4.60;;
11777;SDS011;5946;51.770;8.548;2023-09-08T12:14:50;8.05;;;4.85;;
11777;SDS011;5946;51.770;8.548;2023-09-08T12:17:16;7.38;;;4.40;;
11777;SDS011;5946;51.770;8.548;2023-09-08T12:19:43;4.88;;;4.40;;
11777;SDS011;5946;51.770;8.548;2023-09-08T12:22:09;6.90;;;4.75;;
11777;SDS011;5946;51.770;8.548;2023-09-08T12:27:24;5.43;;;4.43;;
11777;SDS011;5946;51.770;8.548;2023-09-08T12:30:00;5.22;;;4.82;;
11777;SDS011;5946;51.770;8.548;2023-09-08T12:32:29;8.68;;;4.93;;
11777;SDS011;5946;51.770;8.548;2023-09-08T12:34:55;5.38;;;4.88;;
11777;SDS011;5946;51.770;8.548;2023-09-08T12:37:22;6.63;;;4.78;;
11777;SDS011;5946;51.770;8.548;2023-09-08T12:39:48;8.80;;;4.72;;
11777;SDS011;5946;51.770;8.548;2023-09-08T12:42:14;4.95;;;4.55;;
11777;SDS011;5946;51.770;8.548;2023-09-08T12:44:40;9.05;;;4.90;;
11777;SDS011;5946;51.770;8.548;2023-09-08T12:47:06;5.32;;;4.88;;
11777;SDS011;5946;51.770;8.548;2023-09-08T12:49:32;6.47;;;4.68;;
11777;SDS011;5946;51.770;8.548;2023-09-08T12:51:58;7.10;;;4.60;;
11777;SDS011;5946;51.770;8.548;2023-09-08T12:54:24;5.80;;;5.25;;
11777;SDS011;5946;51.770;8.548;2023-09-08T12:56:50;5.20;;;4.70;;
11777;SDS011;5946;51.770;8.548;2023-09-08T12:59:16;7.93;;;4.80;;
11777;SDS011;5946;51.770;8.548;2023-09-08T13:01:42;8.48;;;4.70;;
11777;SDS011;5946;51.770;8.548;2023-09-08T13:04:08;5.38;;;4.75;;
11777;SDS011;5946;51.770;8.548;2023-09-08T13:06:34;5.63;;;5.00;;
11777;SDS011;5946;51.770;8.548;2023-09-08T13:09:00;6.03;;;4.70;;
11777;SDS011;5946;51.770;8.548;2023-09-08T13:11:26;6.43;;;4.78;;
11777;SDS011;5946;51.770;8.548;2023-09-08T13:13:53;5.65;;;5.00;;
11777;SDS011;5946;51.770;8.548;2023-09-08T13:16:19;5.03;;;4.60;;
11777;SDS011;5946;51.770;8.548;2023-09-08T13:18:45;6.43;;;4.55;;
11777;SDS011;5946;51.770;8.548;2023-09-08T13:21:11;5.72;;;4.60;;
11777;SDS011;5946;51.770;8.548;2023-09-08T13:23:37;5.25;;;4.65;;
11777;SDS011;5946;51.770;8.548;2023-09-08T13:26:03;9.20;;;4.43;;
11777;SDS011;5946;51.770;8.548;2023-09-08T13:28:29;7.68;;;4.88;;
11777;SDS011;5946;51.770;8.548;2023-09-08T13:30:55;5.10;;;4.55;;
11777;SDS011;5946;51.770;8.548;2023-09-08T13:33:21;5.10;;;4.53;;
11777;SDS011;5946;51.770;8.548;2023-09-08T13:35:48;6.18;;;4.78;;
11777;SDS011;5946;51.770;8.548;2023-09-08T13:38:14;9.35;;;4.78;;
11777;SDS011;5946;51.770;8.548;2023-09-08T13:40:40;7.05;;;4.35;;
11777;SDS011;5946;51.770;8.548;2023-09-08T13:43:06;7.05;;;4.55;;
11777;SDS011;5946;51.770;8.548;2023-09-08T13:45:32;4.95;;;4.45;;
11777;SDS011;5946;51.770;8.548;2023-09-08T13:47:58;5.38;;;4.50;;
11777;SDS011;5946;51.770;8.548;2023-09-08T13:50:24;4.78;;;4.35;;
11777;SDS011;5946;51.770;8.548;2023-09-08T13:52:50;5.80;;;4.50;;
11777;SDS011;5946;51.770;8.548;2023-09-08T13:55:17;7.35;;;4.60;;
11777;SDS011;5946;51.770;8.548;2023-09-08T13:57:48;4.60;;;4.15;;
11777;SDS011;5946;51.770;8.548;2023-09-08T14:00:14;6.18;;;4.25;;
11777;SDS011;5946;51.770;8.548;2023-09-08T14:02:40;6.45;;;4.32;;
11777;SDS011;5946;51.770;8.548;2023-09-08T14:05:06;4.97;;;4.57;;
11777;SDS011;5946;51.770;8.548;2023-09-08T14:07:32;6.10;;;4.47;;
11777;SDS011;5946;51.770;8.548;2023-09-08T14:09:58;6.43;;;4.32;;
11777;SDS011;5946;51.770;8.548;2023-09-08T14:12:26;7.10;;;4.45;;
11777;SDS011;5946;51.770;8.548;2023-09-08T14:14:52;6.85;;;4.40;;
11777;SDS011;5946;51.770;8.548;2023-09-08T14:17:18;5.78;;;4.35;;
11777;SDS011;5946;51.770;8.548;2023-09-08T14:19:45;4.63;;;4.20;;
11777;SDS011;5946;51.770;8.548;2023-09-08T14:22:12;4.72;;;4.05;;
11777;SDS011;5946;51.770;8.548;2023-09-08T14:24:38;6.53;;;4.10;;
11777;SDS011;5946;51.770;8.548;2023-09-08T14:27:04;6.97;;;4.30;;
11777;SDS011;5946;51.770;8.548;2023-09-08T14:29:30;4.75;;;4.32;;
11777;SDS011;5946;51.770;8.548;2023-09-08T14:31:56;4.57;;;4.10;;
11777;SDS011;5946;51.770;8.548;2023-09-08T14:34:22;6.93;;;4.18;;
11777;SDS011;5946;51.770;8.548;2023-09-08T14:36:48;6.32;;;4.00;;
11777;SDS011;5946;51.770;8.548;2023-09-08T14:39:14;5.70;;;3.80;;
11777;SDS011;5946;51.770;8.548;2023-09-08T14:41:42;4.55;;;3.55;;
11777;SDS011;5946;51.770;8.548;2023-09-08T14:44:08;6.97;;;3.63;;
11777;SDS011;5946;51.770;8.548;2023-09-08T14:46:34;8.73;;;4.13;;
11777;SDS011;5946;51.770;8.548;2023-09-08T14:49:00;4.55;;;3.53;;
11777;SDS011;5946;51.770;8.548;2023-09-08T14:51:27;3.95;;;3.47;;
11777;SDS011;5946;51.770;8.548;2023-09-08T14:53:53;4.18;;;3.58;;
11777;SDS011;5946;51.770;8.548;2023-09-08T14:56:19;5.65;;;3.70;;
11777;SDS011;5946;51.770;8.548;2023-09-08T14:58:45;9.10;;;3.33;;
11777;SDS011;5946;51.770;8.548;2023-09-08T15:01:11;5.28;;;3.60;;
11777;SDS011;5946;51.770;8.548;2023-09-08T15:03:39;3.97;;;3.58;;